Admiral — WCY6529 — position and weather

sailwx.info

Track history (hours):
 
Tides and Currents Weather Stations Pressure Air Temp Water Temp Dewpoint Dewpoint Depression Visibility Wind Speed Wind Dir Waves Ship Positions

Admiral

Owner: CROWLEY MARINE SERVICES INC, SEATTLE, WA. More information available from US FCC via Universal Licensing System and Coast Guard Vessel Documentation Center.

Last reported at 2015-Mar-01 16:29 UTC. Time now 2015-Mar-01 16:41 UTC.
Position N 33°43' W 118°13'.

; draft 5.3 m.

Type: Tug. MMSI: 366755020.

Date/timePositionNaut miles runAvg speedWind from/ knotsBaromVisibWave heightAir tempDewpointWater temp
2015-Mar-01 16:29N 33°43' W 118°13'3 3.2
2015-Mar-01 15:34N 33°46' W 118°13'0 0.0
2015-Mar-01 14:33N 33°46' W 118°13'3 3.2
2015-Mar-01 13:33N 33°44' W 118°11'1 1.2
2015-Mar-01 12:33N 33°44' W 118°12'0 0.4
2015-Mar-01 11:33N 33°44' W 118°13'1 0.3
2015-Mar-01 07:33N 33°45' W 118°13'2 0.6
2015-Mar-01 05:07N 33°44' W 118°13'2 2.8
2015-Mar-01 04:15N 33°46' W 118°13'0 0.4
2015-Mar-01 03:33N 33°46' W 118°13'3 1.3
2015-Mar-01 01:33N 33°44' W 118°12'3 2.8
2015-Mar-01 00:34N 33°46' W 118°13'3 1.4
2015-Feb-28 22:11N 33°44' W 118°17'0 0.0
2015-Feb-28 18:33N 33°44' W 118°17'3 0.4
2015-Feb-28 10:34N 33°45' W 118°13'0 0.1
2015-Feb-28 09:33N 33°45' W 118°13'1 1.2
2015-Feb-28 08:32N 33°44' W 118°13'1 0.8
2015-Feb-28 07:34N 33°45' W 118°13'0 0.0
2015-Feb-28 06:33N 33°45' W 118°13'2 2.0
2015-Feb-28 05:27N 33°43' W 118°11'0 0.1
2015-Feb-28 04:19N 33°43' W 118°11'3 4.4
2015-Feb-28 03:33N 33°46' W 118°13'1 0.9
2015-Feb-28 02:33N 33°46' W 118°13'3 1.8
2015-Feb-28 01:11N 33°44' W 118°11'2 3.1
2015-Feb-28 00:33N 33°45' W 118°13'0 0.0
2015-Feb-27 23:34N 33°45' W 118°13'1 1.2
2015-Feb-27 22:32N 33°44' W 118°12'1 0.7
2015-Feb-27 21:33N 33°44' W 118°13'3 0.4
2015-Feb-27 13:30N 33°45' W 118°16'1 0.8
2015-Feb-27 12:33N 33°46' W 118°17'2 0.3
2015-Feb-27 07:32N 33°44' W 118°17'0 0.0
2015-Feb-27 06:33N 33°44' W 118°17'3 2.7
2015-Feb-27 05:33N 33°43' W 118°14'2 1.5
2015-Feb-27 04:33N 33°44' W 118°12'0 0.4
2015-Feb-27 03:33N 33°44' W 118°12'2 1.1
2015-Feb-27 02:11N 33°45' W 118°12'1 1.1
2015-Feb-27 01:33N 33°44' W 118°12'4 3.5
2015-Feb-27 00:31N 33°44' W 118°17'0 0.0
2015-Feb-26 23:20N 33°44' W 118°17'0 0.0
2015-Feb-26 21:34N 33°44' W 118°17'0 0.0
2015-Feb-26 20:08N 33°44' W 118°17'0 0.0
2015-Feb-26 19:31N 33°44' W 118°17'0 0.1
2015-Feb-26 18:12N 33°44' W 118°17'3 5.3
2015-Feb-26 17:32N 33°44' W 118°13'3 2.9
2015-Feb-26 16:29N 33°41' W 118°11'6 4.4
2015-Feb-26 15:11N 33°44' W 118°17'0 0.5
2015-Feb-26 14:33N 33°44' W 118°17'0 0.0
2015-Feb-26 13:34N 33°44' W 118°17'0 0.0
2015-Feb-26 12:34N 33°44' W 118°17'0 0.0
2015-Feb-26 11:33N 33°44' W 118°17'1 0.7
2015-Feb-26 10:33N 33°45' W 118°16'2 1.6
2015-Feb-26 09:34N 33°43' W 118°16'1 1.0
2015-Feb-26 08:33N 33°44' W 118°17'0 0.0
2015-Feb-26 07:32N 33°44' W 118°17'0 0.0
2015-Feb-26 06:34N 33°44' W 118°17'0 0.0
2015-Feb-26 05:34N 33°44' W 118°17'0 0.0
2015-Feb-26 04:34N 33°44' W 118°17'0 0.4
2015-Feb-26 03:33N 33°44' W 118°17'6 5.1
2015-Feb-26 02:27N 33°43' W 118°10'4 4.8
2015-Feb-26 01:34N 33°46' W 118°13'1 0.7
2015-Feb-26 00:33N 33°46' W 118°14'0 0.0
2015-Feb-25 23:33N 33°46' W 118°14'0 0.0
2015-Feb-25 22:32N 33°46' W 118°14'1 0.9
2015-Feb-25 21:34N 33°46' W 118°13'3 3.2
2015-Feb-25 20:34N 33°44' W 118°17'0 0.0
2015-Feb-25 19:31N 33°44' W 118°17'3 1.3
2015-Feb-25 17:28N 33°44' W 118°13'1 1.4
2015-Feb-25 16:33N 33°45' W 118°14'2 1.1
2015-Feb-25 14:28N 33°44' W 118°17'1 1.2
2015-Feb-25 13:32N 33°45' W 118°17'3 3.0
2015-Feb-25 12:33N 33°43' W 118°15'3 2.6
2015-Feb-25 11:31N 33°45' W 118°13'3 3.4
2015-Feb-25 10:33N 33°44' W 118°09'5 4.7
2015-Feb-25 09:34N 33°46' W 118°14'3 2.5
2015-Feb-25 08:33N 33°44' W 118°12'1 0.6
2015-Feb-25 07:32N 33°43' W 118°12'4 1.8
2015-Feb-25 05:33N 33°44' W 118°17'0 0.0
2015-Feb-25 04:33N 33°44' W 118°17'0 0.0
2015-Feb-25 03:33N 33°44' W 118°17'2 1.6
2015-Feb-25 02:33N 33°43' W 118°16'3 2.8
2015-Feb-25 01:34N 33°46' W 118°17'0 0.3
2015-Feb-25 00:33N 33°45' W 118°17'1 1.0
2015-Feb-24 23:33N 33°44' W 118°17'0 0.0
2015-Feb-24 22:32N 33°44' W 118°17'0 0.0
2015-Feb-24 20:12N 33°44' W 118°17'2 0.1
2015-Feb-24 07:34N 33°46' W 118°15'0 0.5
2015-Feb-24 06:33N 33°45' W 118°16'1 0.2
2015-Feb-24 02:06N 33°45' W 118°16'2 3.0
2015-Feb-24 01:33N 33°46' W 118°15'12 1.6
2015-Feb-23 18:33N 33°51' W 118°27'3 3.2
2015-Feb-23 17:34N 33°54' W 118°27'0 0.2
2015-Feb-23 16:33N 33°54' W 118°27'0 0.4
2015-Feb-23 15:34N 33°54' W 118°27'3 3.1
2015-Feb-23 14:33N 33°51' W 118°27'11 0.4
2015-Feb-22 12:27N 33°45' W 118°16'0 0.1
2015-Feb-22 11:34N 33°45' W 118°16'4 3.4
2015-Feb-22 10:31N 33°44' W 118°12'1 0.1
2015-Feb-21 22:05N 33°44' W 118°13'2 4.7
2015-Feb-21 21:34N 33°46' W 118°13'0 0.2
2015-Feb-21 20:33N 33°46' W 118°13'2 0.2
2015-Feb-21 11:23N 33°44' W 118°13'2 2.7
2015-Feb-21 10:33N 33°46' W 118°14'2 2.2
2015-Feb-21 09:33N 33°44' W 118°14'2 2.5
2015-Feb-21 08:33N 33°46' W 118°16'1 0.9
2015-Feb-21 07:30N 33°45' W 118°16'1 0.2
2015-Feb-21 04:32N 33°45' W 118°16'3 2.9
2015-Feb-21 03:33N 33°45' W 118°12'4 0.4
2015-Feb-20 18:26N 33°44' W 118°17'0 0.0
2015-Feb-20 17:31N 33°44' W 118°17'2 1.7
2015-Feb-20 16:30N 33°46' W 118°16'1 0.9
2015-Feb-20 15:34N 33°45' W 118°16'1 0.3
2015-Feb-20 13:09N 33°44' W 118°17'0 0.0
2015-Feb-20 12:32N 33°44' W 118°17'1 0.7
2015-Feb-20 11:34N 33°45' W 118°16'1 0.2
2015-Feb-20 08:07N 33°44' W 118°17'2 2.8
2015-Feb-20 07:33N 33°46' W 118°16'2 1.6
2015-Feb-20 06:33N 33°44' W 118°17'0 0.0
2015-Feb-20 05:30N 33°44' W 118°17'0 0.0
2015-Feb-20 04:33N 33°44' W 118°17'1 0.9
2015-Feb-20 03:33N 33°45' W 118°16'1 0.6
2015-Feb-20 02:13N 33°44' W 118°17'0 0.0
2015-Feb-20 01:33N 33°44' W 118°17'0 0.0
2015-Feb-19 22:15N 33°44' W 118°17'0 0.0
2015-Feb-19 21:33N 33°44' W 118°17'0 0.0
2015-Feb-19 20:22N 33°44' W 118°17'3 3.9
2015-Feb-19 19:33N 33°45' W 118°13'0 0.2
2015-Feb-19 18:33N 33°46' W 118°13'  
Track history (hours):
 
Tides and Currents Weather Stations Pressure Air Temp Water Temp Dewpoint Dewpoint Depression Visibility Wind Speed Wind Dir Waves Ship Positions

Admiral

Owner: CROWLEY MARINE SERVICES INC, SEATTLE, WA. More information available from US FCC via Universal Licensing System and Coast Guard Vessel Documentation Center.

Last reported at 2015-Mar-01 16:29 UTC. Time now 2015-Mar-01 16:41 UTC.
Position N 33°43' W 118°13'.

; draft 5.3 m.

Type: Tug. MMSI: 366755020.

Date/timePositionNaut miles runAvg speedWind from/ knotsBaromVisibWave heightAir tempDewpointWater temp
2015-Mar-01 16:29N 33°43' W 118°13'3 3.2
2015-Mar-01 15:34N 33°46' W 118°13'0 0.0
2015-Mar-01 14:33N 33°46' W 118°13'3 3.2
2015-Mar-01 13:33N 33°44' W 118°11'1 1.2
2015-Mar-01 12:33N 33°44' W 118°12'0 0.4
2015-Mar-01 11:33N 33°44' W 118°13'1 0.3
2015-Mar-01 07:33N 33°45' W 118°13'2 0.6
2015-Mar-01 05:07N 33°44' W 118°13'2 2.8
2015-Mar-01 04:15N 33°46' W 118°13'0 0.4
2015-Mar-01 03:33N 33°46' W 118°13'3 1.3
2015-Mar-01 01:33N 33°44' W 118°12'3 2.8
2015-Mar-01 00:34N 33°46' W 118°13'3 1.4
2015-Feb-28 22:11N 33°44' W 118°17'0 0.0
2015-Feb-28 18:33N 33°44' W 118°17'3 0.4
2015-Feb-28 10:34N 33°45' W 118°13'0 0.1
2015-Feb-28 09:33N 33°45' W 118°13'1 1.2
2015-Feb-28 08:32N 33°44' W 118°13'1 0.8
2015-Feb-28 07:34N 33°45' W 118°13'0 0.0
2015-Feb-28 06:33N 33°45' W 118°13'2 2.0
2015-Feb-28 05:27N 33°43' W 118°11'0 0.1
2015-Feb-28 04:19N 33°43' W 118°11'3 4.4
2015-Feb-28 03:33N 33°46' W 118°13'1 0.9
2015-Feb-28 02:33N 33°46' W 118°13'3 1.8
2015-Feb-28 01:11N 33°44' W 118°11'2 3.1
2015-Feb-28 00:33N 33°45' W 118°13'0 0.0
2015-Feb-27 23:34N 33°45' W 118°13'1 1.2
2015-Feb-27 22:32N 33°44' W 118°12'1 0.7
2015-Feb-27 21:33N 33°44' W 118°13'3 0.4
2015-Feb-27 13:30N 33°45' W 118°16'1 0.8
2015-Feb-27 12:33N 33°46' W 118°17'2 0.3
2015-Feb-27 07:32N 33°44' W 118°17'0 0.0
2015-Feb-27 06:33N 33°44' W 118°17'3 2.7
2015-Feb-27 05:33N 33°43' W 118°14'2 1.5
2015-Feb-27 04:33N 33°44' W 118°12'0 0.4
2015-Feb-27 03:33N 33°44' W 118°12'2 1.1
2015-Feb-27 02:11N 33°45' W 118°12'1 1.1
2015-Feb-27 01:33N 33°44' W 118°12'4 3.5
2015-Feb-27 00:31N 33°44' W 118°17'0 0.0
2015-Feb-26 23:20N 33°44' W 118°17'0 0.0
2015-Feb-26 21:34N 33°44' W 118°17'0 0.0
2015-Feb-26 20:08N 33°44' W 118°17'0 0.0
2015-Feb-26 19:31N 33°44' W 118°17'0 0.1
2015-Feb-26 18:12N 33°44' W 118°17'3 5.3
2015-Feb-26 17:32N 33°44' W 118°13'3 2.9
2015-Feb-26 16:29N 33°41' W 118°11'6 4.4
2015-Feb-26 15:11N 33°44' W 118°17'0 0.5
2015-Feb-26 14:33N 33°44' W 118°17'0 0.0
2015-Feb-26 13:34N 33°44' W 118°17'0 0.0
2015-Feb-26 12:34N 33°44' W 118°17'0 0.0
2015-Feb-26 11:33N 33°44' W 118°17'1 0.7
2015-Feb-26 10:33N 33°45' W 118°16'2 1.6
2015-Feb-26 09:34N 33°43' W 118°16'1 1.0
2015-Feb-26 08:33N 33°44' W 118°17'0 0.0
2015-Feb-26 07:32N 33°44' W 118°17'0 0.0
2015-Feb-26 06:34N 33°44' W 118°17'0 0.0
2015-Feb-26 05:34N 33°44' W 118°17'0 0.0
2015-Feb-26 04:34N 33°44' W 118°17'0 0.4
2015-Feb-26 03:33N 33°44' W 118°17'6 5.1
2015-Feb-26 02:27N 33°43' W 118°10'4 4.8
2015-Feb-26 01:34N 33°46' W 118°13'1 0.7
2015-Feb-26 00:33N 33°46' W 118°14'0 0.0
2015-Feb-25 23:33N 33°46' W 118°14'0 0.0
2015-Feb-25 22:32N 33°46' W 118°14'1 0.9
2015-Feb-25 21:34N 33°46' W 118°13'3 3.2
2015-Feb-25 20:34N 33°44' W 118°17'0 0.0
2015-Feb-25 19:31N 33°44' W 118°17'3 1.3
2015-Feb-25 17:28N 33°44' W 118°13'1 1.4
2015-Feb-25 16:33N 33°45' W 118°14'2 1.1
2015-Feb-25 14:28N 33°44' W 118°17'1 1.2
2015-Feb-25 13:32N 33°45' W 118°17'3 3.0
2015-Feb-25 12:33N 33°43' W 118°15'3 2.6
2015-Feb-25 11:31N 33°45' W 118°13'3 3.4
2015-Feb-25 10:33N 33°44' W 118°09'5 4.7
2015-Feb-25 09:34N 33°46' W 118°14'3 2.5
2015-Feb-25 08:33N 33°44' W 118°12'1 0.6
2015-Feb-25 07:32N 33°43' W 118°12'4 1.8
2015-Feb-25 05:33N 33°44' W 118°17'0 0.0
2015-Feb-25 04:33N 33°44' W 118°17'0 0.0
2015-Feb-25 03:33N 33°44' W 118°17'2 1.6
2015-Feb-25 02:33N 33°43' W 118°16'3 2.8
2015-Feb-25 01:34N 33°46' W 118°17'0 0.3
2015-Feb-25 00:33N 33°45' W 118°17'1 1.0
2015-Feb-24 23:33N 33°44' W 118°17'0 0.0
2015-Feb-24 22:32N 33°44' W 118°17'0 0.0
2015-Feb-24 20:12N 33°44' W 118°17'2 0.1
2015-Feb-24 07:34N 33°46' W 118°15'0 0.5
2015-Feb-24 06:33N 33°45' W 118°16'1 0.2
2015-Feb-24 02:06N 33°45' W 118°16'2 3.0
2015-Feb-24 01:33N 33°46' W 118°15'12 1.6
2015-Feb-23 18:33N 33°51' W 118°27'3 3.2
2015-Feb-23 17:34N 33°54' W 118°27'0 0.2
2015-Feb-23 16:33N 33°54' W 118°27'0 0.4
2015-Feb-23 15:34N 33°54' W 118°27'3 3.1
2015-Feb-23 14:33N 33°51' W 118°27'11 0.4
2015-Feb-22 12:27N 33°45' W 118°16'0 0.1
2015-Feb-22 11:34N 33°45' W 118°16'4 3.4
2015-Feb-22 10:31N 33°44' W 118°12'1 0.1
2015-Feb-21 22:05N 33°44' W 118°13'2 4.7
2015-Feb-21 21:34N 33°46' W 118°13'0 0.2
2015-Feb-21 20:33N 33°46' W 118°13'2 0.2
2015-Feb-21 11:23N 33°44' W 118°13'2 2.7
2015-Feb-21 10:33N 33°46' W 118°14'2 2.2
2015-Feb-21 09:33N 33°44' W 118°14'2 2.5
2015-Feb-21 08:33N 33°46' W 118°16'1 0.9
2015-Feb-21 07:30N 33°45' W 118°16'1 0.2
2015-Feb-21 04:32N 33°45' W 118°16'3 2.9
2015-Feb-21 03:33N 33°45' W 118°12'4 0.4
2015-Feb-20 18:26N 33°44' W 118°17'0 0.0
2015-Feb-20 17:31N 33°44' W 118°17'2 1.7
2015-Feb-20 16:30N 33°46' W 118°16'1 0.9
2015-Feb-20 15:34N 33°45' W 118°16'1 0.3
2015-Feb-20 13:09N 33°44' W 118°17'0 0.0
2015-Feb-20 12:32N 33°44' W 118°17'1 0.7
2015-Feb-20 11:34N 33°45' W 118°16'1 0.2
2015-Feb-20 08:07N 33°44' W 118°17'2 2.8
2015-Feb-20 07:33N 33°46' W 118°16'2 1.6
2015-Feb-20 06:33N 33°44' W 118°17'0 0.0
2015-Feb-20 05:30N 33°44' W 118°17'0 0.0
2015-Feb-20 04:33N 33°44' W 118°17'1 0.9
2015-Feb-20 03:33N 33°45' W 118°16'1 0.6
2015-Feb-20 02:13N 33°44' W 118°17'0 0.0
2015-Feb-20 01:33N 33°44' W 118°17'0 0.0
2015-Feb-19 22:15N 33°44' W 118°17'0 0.0
2015-Feb-19 21:33N 33°44' W 118°17'0 0.0
2015-Feb-19 20:22N 33°44' W 118°17'3 3.9
2015-Feb-19 19:33N 33°45' W 118°13'0 0.2
2015-Feb-19 18:33N 33°46' W 118°13'  

Dump ship's entire track history